sensor_id;sensor_type;location;lat;lon;timestamp;P1;durP1;ratioP1;P2;durP2;ratioP2
31424;SDS011;18054;51.572;7.372;2023-06-14T00:02:34;17.67;;;5.88;;
31424;SDS011;18054;51.572;7.372;2023-06-14T00:05:02;17.20;;;6.65;;
31424;SDS011;18054;51.572;7.372;2023-06-14T00:07:33;19.88;;;7.50;;
31424;SDS011;18054;51.572;7.372;2023-06-14T00:10:01;21.17;;;8.15;;
31424;SDS011;18054;51.572;7.372;2023-06-14T00:12:29;20.35;;;7.75;;
31424;SDS011;18054;51.572;7.372;2023-06-14T00:14:59;19.98;;;7.53;;
31424;SDS011;18054;51.572;7.372;2023-06-14T00:17:31;20.45;;;7.45;;
31424;SDS011;18054;51.572;7.372;2023-06-14T00:20:00;27.60;;;9.38;;
31424;SDS011;18054;51.572;7.372;2023-06-14T00:22:31;19.77;;;9.38;;
31424;SDS011;18054;51.572;7.372;2023-06-14T00:24:59;19.92;;;7.60;;
31424;SDS011;18054;51.572;7.372;2023-06-14T00:27:40;20.10;;;8.63;;
31424;SDS011;18054;51.572;7.372;2023-06-14T00:30:08;24.15;;;8.20;;
31424;SDS011;18054;51.572;7.372;2023-06-14T00:35:05;18.90;;;7.15;;
31424;SDS011;18054;51.572;7.372;2023-06-14T00:37:35;12.32;;;5.75;;
31424;SDS011;18054;51.572;7.372;2023-06-14T00:40:03;16.85;;;6.32;;
31424;SDS011;18054;51.572;7.372;2023-06-14T00:42:31;15.70;;;6.45;;
31424;SDS011;18054;51.572;7.372;2023-06-14T00:44:59;15.52;;;5.97;;
31424;SDS011;18054;51.572;7.372;2023-06-14T00:49:54;13.73;;;5.50;;
31424;SDS011;18054;51.572;7.372;2023-06-14T00:52:23;10.43;;;4.32;;
31424;SDS011;18054;51.572;7.372;2023-06-14T00:54:51;10.93;;;5.35;;
31424;SDS011;18054;51.572;7.372;2023-06-14T00:57:18;11.27;;;4.55;;
31424;SDS011;18054;51.572;7.372;2023-06-14T00:59:48;12.27;;;4.43;;
31424;SDS011;18054;51.572;7.372;2023-06-14T01:02:16;9.73;;;3.97;;
31424;SDS011;18054;51.572;7.372;2023-06-14T01:04:45;19.67;;;4.50;;
31424;SDS011;18054;51.572;7.372;2023-06-14T01:07:15;10.05;;;4.10;;
31424;SDS011;18054;51.572;7.372;2023-06-14T01:09:51;10.98;;;4.43;;
31424;SDS011;18054;51.572;7.372;2023-06-14T01:12:24;11.60;;;4.10;;
31424;SDS011;18054;51.572;7.372;2023-06-14T01:14:54;8.32;;;4.00;;
31424;SDS011;18054;51.572;7.372;2023-06-14T01:17:23;15.02;;;4.35;;
31424;SDS011;18054;51.572;7.372;2023-06-14T01:19:53;10.95;;;3.72;;
31424;SDS011;18054;51.572;7.372;2023-06-14T01:22:24;15.30;;;3.63;;
31424;SDS011;18054;51.572;7.372;2023-06-14T01:24:55;7.65;;;3.67;;
31424;SDS011;18054;51.572;7.372;2023-06-14T01:27:24;11.93;;;3.75;;
31424;SDS011;18054;51.572;7.372;2023-06-14T01:29:55;8.40;;;3.50;;
31424;SDS011;18054;51.572;7.372;2023-06-14T01:32:23;14.05;;;4.00;;
31424;SDS011;18054;51.572;7.372;2023-06-14T01:34:52;6.93;;;3.50;;
31424;SDS011;18054;51.572;7.372;2023-06-14T01:37:19;8.25;;;3.83;;
31424;SDS011;18054;51.572;7.372;2023-06-14T01:39:47;6.78;;;3.40;;
31424;SDS011;18054;51.572;7.372;2023-06-14T01:42:19;7.38;;;3.42;;
31424;SDS011;18054;51.572;7.372;2023-06-14T01:44:47;8.55;;;3.90;;
31424;SDS011;18054;51.572;7.372;2023-06-14T01:47:14;9.18;;;3.80;;
31424;SDS011;18054;51.572;7.372;2023-06-14T01:52:09;6.18;;;3.53;;
31424;SDS011;18054;51.572;7.372;2023-06-14T01:54:37;11.02;;;3.72;;
31424;SDS011;18054;51.572;7.372;2023-06-14T01:57:08;5.13;;;3.28;;
31424;SDS011;18054;51.572;7.372;2023-06-14T01:59:38;10.93;;;3.65;;
31424;SDS011;18054;51.572;7.372;2023-06-14T02:02:05;13.85;;;3.45;;
31424;SDS011;18054;51.572;7.372;2023-06-14T02:04:33;8.30;;;3.85;;
31424;SDS011;18054;51.572;7.372;2023-06-14T02:07:00;7.32;;;3.70;;
31424;SDS011;18054;51.572;7.372;2023-06-14T02:09:28;6.50;;;3.22;;
31424;SDS011;18054;51.572;7.372;2023-06-14T02:11:56;7.03;;;3.45;;
31424;SDS011;18054;51.572;7.372;2023-06-14T02:14:24;6.50;;;3.58;;
31424;SDS011;18054;51.572;7.372;2023-06-14T02:16:55;10.25;;;3.63;;
31424;SDS011;18054;51.572;7.372;2023-06-14T02:19:23;8.43;;;4.65;;
31424;SDS011;18054;51.572;7.372;2023-06-14T02:21:51;9.13;;;3.58;;
31424;SDS011;18054;51.572;7.372;2023-06-14T02:24:19;9.18;;;3.47;;
31424;SDS011;18054;51.572;7.372;2023-06-14T02:26:47;8.07;;;3.75;;
31424;SDS011;18054;51.572;7.372;2023-06-14T02:29:14;11.70;;;3.45;;
31424;SDS011;18054;51.572;7.372;2023-06-14T02:31:42;11.95;;;3.47;;
31424;SDS011;18054;51.572;7.372;2023-06-14T02:34:12;17.52;;;3.83;;
31424;SDS011;18054;51.572;7.372;2023-06-14T02:36:40;9.70;;;3.38;;
31424;SDS011;18054;51.572;7.372;2023-06-14T02:39:08;15.95;;;3.42;;
31424;SDS011;18054;51.572;7.372;2023-06-14T02:41:36;9.40;;;3.55;;
31424;SDS011;18054;51.572;7.372;2023-06-14T02:44:04;11.07;;;3.35;;
31424;SDS011;18054;51.572;7.372;2023-06-14T02:46:31;9.23;;;3.63;;
31424;SDS011;18054;51.572;7.372;2023-06-14T02:48:59;10.27;;;3.65;;
31424;SDS011;18054;51.572;7.372;2023-06-14T02:53:55;7.35;;;3.35;;
31424;SDS011;18054;51.572;7.372;2023-06-14T02:56:23;6.57;;;3.60;;
31424;SDS011;18054;51.572;7.372;2023-06-14T02:58:52;8.52;;;3.83;;
31424;SDS011;18054;51.572;7.372;2023-06-14T03:01:20;8.02;;;3.63;;
31424;SDS011;18054;51.572;7.372;2023-06-14T03:03:48;15.18;;;3.45;;
31424;SDS011;18054;51.572;7.372;2023-06-14T03:06:16;9.68;;;3.53;;
31424;SDS011;18054;51.572;7.372;2023-06-14T03:08:46;10.75;;;3.58;;
31424;SDS011;18054;51.572;7.372;2023-06-14T03:11:18;5.70;;;3.28;;
31424;SDS011;18054;51.572;7.372;2023-06-14T03:13:47;11.45;;;3.35;;
31424;SDS011;18054;51.572;7.372;2023-06-14T03:16:15;7.88;;;3.08;;
31424;SDS011;18054;51.572;7.372;2023-06-14T03:18:46;12.85;;;3.47;;
31424;SDS011;18054;51.572;7.372;2023-06-14T03:21:14;8.40;;;3.35;;
31424;SDS011;18054;51.572;7.372;2023-06-14T03:23:43;11.90;;;3.35;;
31424;SDS011;18054;51.572;7.372;2023-06-14T03:26:11;8.05;;;3.17;;
31424;SDS011;18054;51.572;7.372;2023-06-14T03:28:42;11.65;;;2.95;;
31424;SDS011;18054;51.572;7.372;2023-06-14T03:31:10;8.10;;;3.75;;
31424;SDS011;18054;51.572;7.372;2023-06-14T03:33:37;8.27;;;2.85;;
31424;SDS011;18054;51.572;7.372;2023-06-14T03:36:05;11.80;;;3.65;;
31424;SDS011;18054;51.572;7.372;2023-06-14T03:38:34;7.45;;;3.17;;
31424;SDS011;18054;51.572;7.372;2023-06-14T03:41:03;7.18;;;3.65;;
31424;SDS011;18054;51.572;7.372;2023-06-14T03:43:31;15.70;;;3.40;;
31424;SDS011;18054;51.572;7.372;2023-06-14T03:46:01;11.55;;;4.00;;
31424;SDS011;18054;51.572;7.372;2023-06-14T03:48:31;11.57;;;3.13;;
31424;SDS011;18054;51.572;7.372;2023-06-14T03:50:58;10.30;;;3.83;;
31424;SDS011;18054;51.572;7.372;2023-06-14T03:53:28;11.90;;;3.38;;
31424;SDS011;18054;51.572;7.372;2023-06-14T03:55:56;8.63;;;3.08;;
31424;SDS011;18054;51.572;7.372;2023-06-14T03:58:34;16.08;;;3.28;;
31424;SDS011;18054;51.572;7.372;2023-06-14T04:01:02;8.15;;;3.05;;
31424;SDS011;18054;51.572;7.372;2023-06-14T04:03:30;6.95;;;3.80;;
31424;SDS011;18054;51.572;7.372;2023-06-14T04:06:00;10.02;;;3.65;;
31424;SDS011;18054;51.572;7.372;2023-06-14T04:08:28;7.70;;;3.33;;
31424;SDS011;18054;51.572;7.372;2023-06-14T04:10:57;10.90;;;3.30;;
31424;SDS011;18054;51.572;7.372;2023-06-14T04:13:24;9.48;;;3.22;;
31424;SDS011;18054;51.572;7.372;2023-06-14T04:15:52;9.07;;;3.63;;
31424;SDS011;18054;51.572;7.372;2023-06-14T04:18:27;11.85;;;3.53;;
31424;SDS011;18054;51.572;7.372;2023-06-14T04:20:54;20.15;;;3.25;;
31424;SDS011;18054;51.572;7.372;2023-06-14T04:25:50;8.98;;;3.38;;
31424;SDS011;18054;51.572;7.372;2023-06-14T04:28:17;11.93;;;3.15;;
31424;SDS011;18054;51.572;7.372;2023-06-14T04:30:46;5.25;;;3.10;;
31424;SDS011;18054;51.572;7.372;2023-06-14T04:33:16;6.53;;;2.85;;
31424;SDS011;18054;51.572;7.372;2023-06-14T04:35:46;9.55;;;3.33;;
31424;SDS011;18054;51.572;7.372;2023-06-14T04:38:17;10.90;;;3.67;;
31424;SDS011;18054;51.572;7.372;2023-06-14T04:40:45;10.65;;;3.10;;
31424;SDS011;18054;51.572;7.372;2023-06-14T04:43:15;7.97;;;3.28;;
31424;SDS011;18054;51.572;7.372;2023-06-14T04:45:46;14.27;;;3.83;;
31424;SDS011;18054;51.572;7.372;2023-06-14T04:48:14;9.50;;;3.67;;
31424;SDS011;18054;51.572;7.372;2023-06-14T04:50:49;8.15;;;3.20;;
31424;SDS011;18054;51.572;7.372;2023-06-14T04:53:19;12.90;;;3.53;;
31424;SDS011;18054;51.572;7.372;2023-06-14T04:55:52;15.15;;;3.08;;
31424;SDS011;18054;51.572;7.372;2023-06-14T04:58:20;8.77;;;3.47;;
31424;SDS011;18054;51.572;7.372;2023-06-14T05:00:47;8.77;;;3.05;;
31424;SDS011;18054;51.572;7.372;2023-06-14T05:03:15;12.98;;;3.15;;
31424;SDS011;18054;51.572;7.372;2023-06-14T05:05:45;9.52;;;2.97;;
31424;SDS011;18054;51.572;7.372;2023-06-14T05:08:14;15.55;;;3.28;;
31424;SDS011;18054;51.572;7.372;2023-06-14T05:10:42;14.32;;;3.90;;
31424;SDS011;18054;51.572;7.372;2023-06-14T05:13:10;15.63;;;3.25;;
31424;SDS011;18054;51.572;7.372;2023-06-14T05:15:37;10.68;;;3.08;;
31424;SDS011;18054;51.572;7.372;2023-06-14T05:18:05;22.58;;;3.40;;
31424;SDS011;18054;51.572;7.372;2023-06-14T05:20:35;9.50;;;4.30;;
31424;SDS011;18054;51.572;7.372;2023-06-14T05:23:04;13.88;;;3.83;;
31424;SDS011;18054;51.572;7.372;2023-06-14T05:25:33;19.83;;;3.47;;
31424;SDS011;18054;51.572;7.372;2023-06-14T05:28:00;9.98;;;3.13;;
31424;SDS011;18054;51.572;7.372;2023-06-14T05:30:28;17.17;;;3.28;;
31424;SDS011;18054;51.572;7.372;2023-06-14T05:32:56;9.50;;;3.08;;
31424;SDS011;18054;51.572;7.372;2023-06-14T05:35:24;15.13;;;3.00;;
31424;SDS011;18054;51.572;7.372;2023-06-14T05:37:53;16.02;;;3.47;;
31424;SDS011;18054;51.572;7.372;2023-06-14T05:42:49;17.42;;;2.83;;
31424;SDS011;18054;51.572;7.372;2023-06-14T05:45:17;12.65;;;2.90;;
31424;SDS011;18054;51.572;7.372;2023-06-14T05:47:45;13.00;;;2.60;;
31424;SDS011;18054;51.572;7.372;2023-06-14T05:50:12;14.80;;;3.30;;
31424;SDS011;18054;51.572;7.372;2023-06-14T05:52:40;10.90;;;2.95;;
31424;SDS011;18054;51.572;7.372;2023-06-14T05:55:08;7.78;;;2.95;;
31424;SDS011;18054;51.572;7.372;2023-06-14T05:57:39;7.97;;;2.80;;
31424;SDS011;18054;51.572;7.372;2023-06-14T06:00:09;12.85;;;3.08;;
31424;SDS011;18054;51.572;7.372;2023-06-14T06:02:41;6.85;;;2.88;;
31424;SDS011;18054;51.572;7.372;2023-06-14T06:05:09;10.93;;;2.63;;
31424;SDS011;18054;51.572;7.372;2023-06-14T06:07:37;16.85;;;4.32;;
31424;SDS011;18054;51.572;7.372;2023-06-14T06:10:06;5.90;;;2.92;;
31424;SDS011;18054;51.572;7.372;2023-06-14T06:15:01;6.43;;;2.70;;
31424;SDS011;18054;51.572;7.372;2023-06-14T06:17:31;6.53;;;2.75;;
31424;SDS011;18054;51.572;7.372;2023-06-14T06:20:18;9.43;;;3.13;;
31424;SDS011;18054;51.572;7.372;2023-06-14T06:22:47;17.02;;;3.13;;
31424;SDS011;18054;51.572;7.372;2023-06-14T06:25:14;13.07;;;2.53;;
31424;SDS011;18054;51.572;7.372;2023-06-14T06:27:43;10.00;;;2.95;;
31424;SDS011;18054;51.572;7.372;2023-06-14T06:30:11;10.02;;;2.97;;
31424;SDS011;18054;51.572;7.372;2023-06-14T06:32:40;6.28;;;2.65;;
31424;SDS011;18054;51.572;7.372;2023-06-14T06:35:08;11.80;;;2.67;;
31424;SDS011;18054;51.572;7.372;2023-06-14T06:37:38;4.22;;;2.75;;
31424;SDS011;18054;51.572;7.372;2023-06-14T06:40:06;13.88;;;2.97;;
31424;SDS011;18054;51.572;7.372;2023-06-14T06:42:34;7.07;;;2.50;;
31424;SDS011;18054;51.572;7.372;2023-06-14T06:45:04;9.68;;;3.28;;
31424;SDS011;18054;51.572;7.372;2023-06-14T06:47:32;5.57;;;2.78;;
31424;SDS011;18054;51.572;7.372;2023-06-14T06:50:01;11.07;;;2.83;;
31424;SDS011;18054;51.572;7.372;2023-06-14T06:52:28;6.15;;;2.92;;
31424;SDS011;18054;51.572;7.372;2023-06-14T06:57:23;8.57;;;2.10;;
31424;SDS011;18054;51.572;7.372;2023-06-14T06:59:51;8.25;;;3.00;;
31424;SDS011;18054;51.572;7.372;2023-06-14T07:02:18;9.23;;;2.78;;
31424;SDS011;18054;51.572;7.372;2023-06-14T07:04:46;6.88;;;2.38;;
31424;SDS011;18054;51.572;7.372;2023-06-14T07:07:15;8.93;;;2.58;;
31424;SDS011;18054;51.572;7.372;2023-06-14T07:09:42;9.02;;;2.63;;
31424;SDS011;18054;51.572;7.372;2023-06-14T07:12:10;10.70;;;2.78;;
31424;SDS011;18054;51.572;7.372;2023-06-14T07:17:05;14.23;;;2.92;;
31424;SDS011;18054;51.572;7.372;2023-06-14T07:19:35;7.82;;;2.55;;
31424;SDS011;18054;51.572;7.372;2023-06-14T07:22:03;12.07;;;2.25;;
31424;SDS011;18054;51.572;7.372;2023-06-14T07:24:33;11.50;;;2.85;;
31424;SDS011;18054;51.572;7.372;2023-06-14T07:27:02;10.00;;;2.38;;
31424;SDS011;18054;51.572;7.372;2023-06-14T07:29:30;7.95;;;2.10;;
31424;SDS011;18054;51.572;7.372;2023-06-14T07:31:57;17.17;;;2.28;;
31424;SDS011;18054;51.572;7.372;2023-06-14T07:34:25;11.65;;;2.33;;
31424;SDS011;18054;51.572;7.372;2023-06-14T07:36:53;12.63;;;2.50;;
31424;SDS011;18054;51.572;7.372;2023-06-14T07:39:21;8.80;;;2.30;;
31424;SDS011;18054;51.572;7.372;2023-06-14T07:41:49;6.82;;;2.70;;
31424;SDS011;18054;51.572;7.372;2023-06-14T07:44:17;11.38;;;2.60;;
31424;SDS011;18054;51.572;7.372;2023-06-14T07:46:44;11.23;;;2.90;;
31424;SDS011;18054;51.572;7.372;2023-06-14T07:49:15;7.35;;;2.30;;
31424;SDS011;18054;51.572;7.372;2023-06-14T07:51:43;12.82;;;2.53;;
31424;SDS011;18054;51.572;7.372;2023-06-14T07:54:12;7.10;;;2.40;;
31424;SDS011;18054;51.572;7.372;2023-06-14T07:56:40;11.90;;;2.65;;
31424;SDS011;18054;51.572;7.372;2023-06-14T07:59:11;11.13;;;2.60;;
31424;SDS011;18054;51.572;7.372;2023-06-14T08:01:38;7.90;;;2.50;;
31424;SDS011;18054;51.572;7.372;2023-06-14T08:04:06;6.50;;;2.25;;
31424;SDS011;18054;51.572;7.372;2023-06-14T08:06:33;8.30;;;1.77;;
31424;SDS011;18054;51.572;7.372;2023-06-14T08:09:01;10.07;;;1.92;;
31424;SDS011;18054;51.572;7.372;2023-06-14T08:11:28;5.85;;;1.88;;
31424;SDS011;18054;51.572;7.372;2023-06-14T08:13:56;4.10;;;1.60;;
31424;SDS011;18054;51.572;7.372;2023-06-14T08:16:25;5.03;;;1.80;;
31424;SDS011;18054;51.572;7.372;2023-06-14T08:18:53;6.53;;;1.42;;
31424;SDS011;18054;51.572;7.372;2023-06-14T08:21:20;6.93;;;1.50;;
31424;SDS011;18054;51.572;7.372;2023-06-14T08:23:48;10.85;;;1.60;;
31424;SDS011;18054;51.572;7.372;2023-06-14T08:26:19;7.18;;;1.40;;
31424;SDS011;18054;51.572;7.372;2023-06-14T08:31:14;5.05;;;1.40;;
31424;SDS011;18054;51.572;7.372;2023-06-14T08:33:43;6.68;;;1.75;;
31424;SDS011;18054;51.572;7.372;2023-06-14T08:36:12;4.97;;;1.67;;
31424;SDS011;18054;51.572;7.372;2023-06-14T08:38:39;3.22;;;1.63;;
31424;SDS011;18054;51.572;7.372;2023-06-14T08:41:07;3.17;;;1.73;;
31424;SDS011;18054;51.572;7.372;2023-06-14T08:43:35;3.30;;;1.33;;
31424;SDS011;18054;51.572;7.372;2023-06-14T08:46:03;6.00;;;1.30;;
31424;SDS011;18054;51.572;7.372;2023-06-14T08:48:30;7.63;;;1.65;;
31424;SDS011;18054;51.572;7.372;2023-06-14T08:51:00;9.57;;;1.90;;
31424;SDS011;18054;51.572;7.372;2023-06-14T08:53:31;9.05;;;1.90;;
31424;SDS011;18054;51.572;7.372;2023-06-14T08:56:03;3.58;;;1.30;;
31424;SDS011;18054;51.572;7.372;2023-06-14T08:58:31;6.47;;;1.17;;
31424;SDS011;18054;51.572;7.372;2023-06-14T09:01:00;10.40;;;1.30;;
31424;SDS011;18054;51.572;7.372;2023-06-14T09:03:29;2.17;;;1.10;;
31424;SDS011;18054;51.572;7.372;2023-06-14T09:05:57;6.10;;;1.40;;
31424;SDS011;18054;51.572;7.372;2023-06-14T09:08:27;8.10;;;1.60;;
31424;SDS011;18054;51.572;7.372;2023-06-14T09:10:56;5.45;;;1.60;;
31424;SDS011;18054;51.572;7.372;2023-06-14T09:13:24;2.40;;;1.17;;
31424;SDS011;18054;51.572;7.372;2023-06-14T09:15:57;11.82;;;1.90;;
31424;SDS011;18054;51.572;7.372;2023-06-14T09:18:29;1.42;;;0.90;;
31424;SDS011;18054;51.572;7.372;2023-06-14T09:21:00;4.97;;;1.00;;
31424;SDS011;18054;51.572;7.372;2023-06-14T09:23:29;1.98;;;1.35;;
31424;SDS011;18054;51.572;7.372;2023-06-14T09:25:57;8.50;;;1.00;;
31424;SDS011;18054;51.572;7.372;2023-06-14T09:28:26;7.13;;;1.05;;
31424;SDS011;18054;51.572;7.372;2023-06-14T09:30:54;1.80;;;0.80;;
31424;SDS011;18054;51.572;7.372;2023-06-14T09:35:52;1.58;;;0.80;;
31424;SDS011;18054;51.572;7.372;2023-06-14T09:38:19;4.10;;;0.90;;
31424;SDS011;18054;51.572;7.372;2023-06-14T09:40:48;8.55;;;1.27;;
31424;SDS011;18054;51.572;7.372;2023-06-14T09:43:16;14.35;;;0.93;;
31424;SDS011;18054;51.572;7.372;2023-06-14T09:48:14;1.45;;;0.73;;
31424;SDS011;18054;51.572;7.372;2023-06-14T09:50:45;1.77;;;0.95;;
31424;SDS011;18054;51.572;7.372;2023-06-14T09:53:13;2.55;;;1.05;;
31424;SDS011;18054;51.572;7.372;2023-06-14T09:55:41;6.63;;;1.58;;
31424;SDS011;18054;51.572;7.372;2023-06-14T09:58:14;3.92;;;1.15;;
31424;SDS011;18054;51.572;7.372;2023-06-14T10:00:43;5.70;;;1.38;;
31424;SDS011;18054;51.572;7.372;2023-06-14T10:03:13;11.02;;;1.60;;
31424;SDS011;18054;51.572;7.372;2023-06-14T10:05:41;22.73;;;2.60;;
31424;SDS011;18054;51.572;7.372;2023-06-14T10:08:10;12.73;;;1.25;;
31424;SDS011;18054;51.572;7.372;2023-06-14T10:10:40;23.60;;;2.15;;
31424;SDS011;18054;51.572;7.372;2023-06-14T10:13:08;6.97;;;1.30;;
31424;SDS011;18054;51.572;7.372;2023-06-14T10:15:38;14.57;;;1.00;;
31424;SDS011;18054;51.572;7.372;2023-06-14T10:18:07;23.88;;;2.10;;
31424;SDS011;18054;51.572;7.372;2023-06-14T10:20:37;28.52;;;2.17;;
31424;SDS011;18054;51.572;7.372;2023-06-14T10:23:07;4.53;;;1.10;;
31424;SDS011;18054;51.572;7.372;2023-06-14T10:25:35;3.42;;;1.23;;
31424;SDS011;18054;51.572;7.372;2023-06-14T10:28:05;10.77;;;1.40;;
31424;SDS011;18054;51.572;7.372;2023-06-14T10:30:46;7.40;;;1.05;;
31424;SDS011;18054;51.572;7.372;2023-06-14T10:33:28;4.80;;;1.10;;
31424;SDS011;18054;51.572;7.372;2023-06-14T10:36:06;3.47;;;1.38;;
31424;SDS011;18054;51.572;7.372;2023-06-14T10:38:34;5.25;;;1.33;;
31424;SDS011;18054;51.572;7.372;2023-06-14T10:41:03;11.93;;;1.30;;
31424;SDS011;18054;51.572;7.372;2023-06-14T10:43:31;9.80;;;1.60;;
31424;SDS011;18054;51.572;7.372;2023-06-14T10:46:16;4.80;;;1.40;;
31424;SDS011;18054;51.572;7.372;2023-06-14T10:48:44;3.35;;;1.20;;
31424;SDS011;18054;51.572;7.372;2023-06-14T10:51:18;8.50;;;1.30;;
31424;SDS011;18054;51.572;7.372;2023-06-14T10:53:47;3.83;;;1.30;;
31424;SDS011;18054;51.572;7.372;2023-06-14T10:56:28;11.43;;;1.73;;
31424;SDS011;18054;51.572;7.372;2023-06-14T10:58:56;7.68;;;1.25;;
31424;SDS011;18054;51.572;7.372;2023-06-14T11:01:31;9.77;;;1.70;;
31424;SDS011;18054;51.572;7.372;2023-06-14T11:04:05;14.20;;;1.38;;
31424;SDS011;18054;51.572;7.372;2023-06-14T11:06:36;5.43;;;1.50;;
31424;SDS011;18054;51.572;7.372;2023-06-14T11:09:23;13.35;;;1.73;;
31424;SDS011;18054;51.572;7.372;2023-06-14T11:11:53;4.55;;;1.40;;
31424;SDS011;18054;51.572;7.372;2023-06-14T11:14:21;2.90;;;1.38;;
31424;SDS011;18054;51.572;7.372;2023-06-14T11:16:50;6.13;;;1.20;;
31424;SDS011;18054;51.572;7.372;2023-06-14T11:19:17;7.13;;;1.58;;
31424;SDS011;18054;51.572;7.372;2023-06-14T11:21:47;3.15;;;1.90;;
31424;SDS011;18054;51.572;7.372;2023-06-14T11:24:14;9.95;;;1.73;;
31424;SDS011;18054;51.572;7.372;2023-06-14T11:26:42;5.07;;;1.52;;
31424;SDS011;18054;51.572;7.372;2023-06-14T11:29:09;5.45;;;1.73;;
31424;SDS011;18054;51.572;7.372;2023-06-14T11:31:37;3.42;;;1.30;;
31424;SDS011;18054;51.572;7.372;2023-06-14T11:36:34;10.73;;;1.92;;
31424;SDS011;18054;51.572;7.372;2023-06-14T11:39:02;19.58;;;1.60;;
31424;SDS011;18054;51.572;7.372;2023-06-14T11:41:33;5.80;;;1.50;;
31424;SDS011;18054;51.572;7.372;2023-06-14T11:44:00;6.85;;;1.10;;
31424;SDS011;18054;51.572;7.372;2023-06-14T11:46:28;3.42;;;1.40;;
31424;SDS011;18054;51.572;7.372;2023-06-14T11:48:56;4.13;;;1.50;;
31424;SDS011;18054;51.572;7.372;2023-06-14T11:51:24;15.85;;;2.05;;
31424;SDS011;18054;51.572;7.372;2023-06-14T11:53:53;8.95;;;1.80;;
31424;SDS011;18054;51.572;7.372;2023-06-14T11:56:21;3.70;;;1.30;;
31424;SDS011;18054;51.572;7.372;2023-06-14T11:58:48;4.78;;;1.58;;
31424;SDS011;18054;51.572;7.372;2023-06-14T12:01:16;7.18;;;1.40;;
31424;SDS011;18054;51.572;7.372;2023-06-14T12:03:47;6.88;;;1.70;;
31424;SDS011;18054;51.572;7.372;2023-06-14T12:06:14;5.78;;;1.67;;
31424;SDS011;18054;51.572;7.372;2023-06-14T12:08:43;3.88;;;1.70;;
31424;SDS011;18054;51.572;7.372;2023-06-14T12:11:13;5.95;;;1.50;;
31424;SDS011;18054;51.572;7.372;2023-06-14T12:13:41;13.32;;;1.83;;
31424;SDS011;18054;51.572;7.372;2023-06-14T12:16:09;5.45;;;1.80;;
31424;SDS011;18054;51.572;7.372;2023-06-14T12:18:38;7.97;;;2.25;;
31424;SDS011;18054;51.572;7.372;2023-06-14T12:21:06;7.45;;;1.63;;
31424;SDS011;18054;51.572;7.372;2023-06-14T12:23:43;6.22;;;1.55;;
31424;SDS011;18054;51.572;7.372;2023-06-14T12:26:13;5.25;;;1.60;;
31424;SDS011;18054;51.572;7.372;2023-06-14T12:28:42;4.32;;;1.60;;
31424;SDS011;18054;51.572;7.372;2023-06-14T12:31:10;7.65;;;1.70;;
31424;SDS011;18054;51.572;7.372;2023-06-14T12:33:39;12.45;;;2.03;;
31424;SDS011;18054;51.572;7.372;2023-06-14T12:36:07;6.07;;;2.03;;
31424;SDS011;18054;51.572;7.372;2023-06-14T12:38:35;10.10;;;1.90;;
31424;SDS011;18054;51.572;7.372;2023-06-14T12:41:03;6.25;;;1.67;;
31424;SDS011;18054;51.572;7.372;2023-06-14T12:43:32;3.03;;;1.50;;
31424;SDS011;18054;51.572;7.372;2023-06-14T12:45:59;6.05;;;1.83;;
31424;SDS011;18054;51.572;7.372;2023-06-14T12:48:27;7.18;;;1.60;;
31424;SDS011;18054;51.572;7.372;2023-06-14T12:50:56;4.22;;;1.42;;
31424;SDS011;18054;51.572;7.372;2023-06-14T12:53:23;9.30;;;2.50;;
31424;SDS011;18054;51.572;7.372;2023-06-14T12:55:51;7.95;;;2.60;;
31424;SDS011;18054;51.572;7.372;2023-06-14T12:58:19;5.43;;;1.60;;
31424;SDS011;18054;51.572;7.372;2023-06-14T13:00:48;12.40;;;1.77;;
31424;SDS011;18054;51.572;7.372;2023-06-14T13:03:15;6.63;;;1.50;;
31424;SDS011;18054;51.572;7.372;2023-06-14T13:05:43;7.30;;;1.85;;
31424;SDS011;18054;51.572;7.372;2023-06-14T13:08:10;10.88;;;2.03;;
31424;SDS011;18054;51.572;7.372;2023-06-14T13:10:37;7.05;;;1.67;;
31424;SDS011;18054;51.572;7.372;2023-06-14T13:13:05;5.47;;;2.08;;
31424;SDS011;18054;51.572;7.372;2023-06-14T13:15:33;5.20;;;1.73;;
31424;SDS011;18054;51.572;7.372;2023-06-14T13:18:02;10.63;;;2.03;;
31424;SDS011;18054;51.572;7.372;2023-06-14T13:20:30;8.32;;;1.70;;
31424;SDS011;18054;51.572;7.372;2023-06-14T13:25:25;13.85;;;2.00;;
31424;SDS011;18054;51.572;7.372;2023-06-14T13:30:20;3.40;;;1.48;;
31424;SDS011;18054;51.572;7.372;2023-06-14T13:32:47;4.88;;;1.60;;
31424;SDS011;18054;51.572;7.372;2023-06-14T13:35:17;9.93;;;1.80;;
31424;SDS011;18054;51.572;7.372;2023-06-14T13:37:45;19.35;;;1.85;;
31424;SDS011;18054;51.572;7.372;2023-06-14T13:40:12;8.93;;;1.77;;
31424;SDS011;18054;51.572;7.372;2023-06-14T13:42:41;10.88;;;1.85;;
31424;SDS011;18054;51.572;7.372;2023-06-14T13:45:09;21.70;;;2.00;;
31424;SDS011;18054;51.572;7.372;2023-06-14T13:47:37;8.13;;;2.33;;
31424;SDS011;18054;51.572;7.372;2023-06-14T13:50:05;5.72;;;1.55;;
31424;SDS011;18054;51.572;7.372;2023-06-14T13:52:35;5.90;;;1.65;;
31424;SDS011;18054;51.572;7.372;2023-06-14T13:55:02;5.82;;;1.63;;
31424;SDS011;18054;51.572;7.372;2023-06-14T13:57:31;3.22;;;1.60;;
31424;SDS011;18054;51.572;7.372;2023-06-14T14:02:37;10.30;;;1.85;;
31424;SDS011;18054;51.572;7.372;2023-06-14T14:05:06;5.75;;;2.03;;
31424;SDS011;18054;51.572;7.372;2023-06-14T14:07:35;3.92;;;1.48;;
31424;SDS011;18054;51.572;7.372;2023-06-14T14:10:04;6.53;;;1.85;;
31424;SDS011;18054;51.572;7.372;2023-06-14T14:12:31;6.97;;;1.92;;
31424;SDS011;18054;51.572;7.372;2023-06-14T14:14:58;6.05;;;2.40;;
31424;SDS011;18054;51.572;7.372;2023-06-14T14:19:53;5.72;;;1.65;;
31424;SDS011;18054;51.572;7.372;2023-06-14T14:22:21;11.73;;;1.67;;
31424;SDS011;18054;51.572;7.372;2023-06-14T14:24:50;4.05;;;1.70;;
31424;SDS011;18054;51.572;7.372;2023-06-14T14:27:17;10.13;;;2.25;;
31424;SDS011;18054;51.572;7.372;2023-06-14T14:34:40;11.38;;;1.88;;
31424;SDS011;18054;51.572;7.372;2023-06-14T14:37:08;5.30;;;2.20;;
31424;SDS011;18054;51.572;7.372;2023-06-14T14:49:26;4.65;;;1.83;;
31424;SDS011;18054;51.572;7.372;2023-06-14T14:51:54;8.20;;;2.28;;
31424;SDS011;18054;51.572;7.372;2023-06-14T14:54:28;7.78;;;1.75;;
31424;SDS011;18054;51.572;7.372;2023-06-14T14:56:56;9.40;;;2.00;;
31424;SDS011;18054;51.572;7.372;2023-06-14T14:59:23;8.32;;;2.70;;
31424;SDS011;18054;51.572;7.372;2023-06-14T15:01:51;9.85;;;1.83;;
31424;SDS011;18054;51.572;7.372;2023-06-14T15:11:42;4.38;;;1.92;;
31424;SDS011;18054;51.572;7.372;2023-06-14T15:14:10;6.00;;;2.10;;
31424;SDS011;18054;51.572;7.372;2023-06-14T15:16:38;3.05;;;1.67;;
31424;SDS011;18054;51.572;7.372;2023-06-14T15:19:05;5.10;;;1.92;;
31424;SDS011;18054;51.572;7.372;2023-06-14T15:21:33;8.25;;;2.22;;
31424;SDS011;18054;51.572;7.372;2023-06-14T15:24:01;6.00;;;1.60;;
31424;SDS011;18054;51.572;7.372;2023-06-14T15:26:28;6.35;;;2.10;;
31424;SDS011;18054;51.572;7.372;2023-06-14T15:28:57;14.93;;;2.22;;
31424;SDS011;18054;51.572;7.372;2023-06-14T15:31:25;5.82;;;2.03;;
31424;SDS011;18054;51.572;7.372;2023-06-14T15:33:54;10.00;;;2.13;;
31424;SDS011;18054;51.572;7.372;2023-06-14T15:36:21;7.40;;;1.65;;
31424;SDS011;18054;51.572;7.372;2023-06-14T15:41:16;4.90;;;1.85;;
31424;SDS011;18054;51.572;7.372;2023-06-14T15:43:44;5.80;;;1.73;;
31424;SDS011;18054;51.572;7.372;2023-06-14T15:46:12;6.18;;;2.35;;
31424;SDS011;18054;51.572;7.372;2023-06-14T15:48:40;11.57;;;2.33;;
31424;SDS011;18054;51.572;7.372;2023-06-14T16:00:57;7.68;;;2.13;;
31424;SDS011;18054;51.572;7.372;2023-06-14T16:03:26;4.72;;;1.88;;
31424;SDS011;18054;51.572;7.372;2023-06-14T16:05:53;4.03;;;1.92;;
31424;SDS011;18054;51.572;7.372;2023-06-14T16:08:21;4.57;;;1.58;;
31424;SDS011;18054;51.572;7.372;2023-06-14T16:11:06;5.65;;;1.83;;